Latest Weather Observations for Temora

IDN60801

Issued at 7:32 pm EST Sunday 30 August 2015 (issued every 30 minutes, with the page automatically refreshed every 10 minutes)

About weather observations | Map of weather stations | Latest weather observations for NSW | Other Formats
Station Details ID: 073151 Name: TEMORA AIRPORT Lat: -34.43 Lon: 147.51 Height: 280.5 m
Data from the previous 72 hours. | See also: Recent months at Temora
Date/Time
EST
Temp
°C
App
Temp
°C
Dew
Point
Rel
Hum
%
Delta-T
°C
Wind Press
QNH
hPa
Press
MSL
hPa
Rain
since 9 am
mm
Dir
 
Spd
km/h
Gust
km/h
Spd
kts
Gust
kts
30/07:30pm 5.9 3.4 4.9 93 0.4 W 7 7 4 4 1020.9 1021.3 0.0
30/07:00pm 6.2 3.9 4.8 91 0.6 WSW 6 7 3 4 1020.7 1021.1 0.0
30/06:30pm 6.4 3.5 4.6 88 0.8 W 9 11 5 6 1020.6 1021.0 0.0
30/06:00pm 8.2 5.4 5.3 82 1.3 W 9 9 5 5 1020.4 1020.8 0.0
30/05:30pm 10.0 7.3 5.6 74 2.0 SW 9 13 5 7 1020.3 1020.7 0.0
30/05:00pm 10.7 7.3 5.7 71 2.3 SSW 13 19 7 10 1020.2 1020.6 0.0
30/04:30pm 12.0 8.9 7.1 72 2.4 WSW 13 17 7 9 1020.1 1020.5 0.0
30/04:00pm 12.1 8.8 6.6 69 2.6 WSW 13 17 7 9 1020.2 1020.6 0.0
30/03:30pm 12.2 9.7 6.7 69 2.7 WSW 9 19 5 10 1020.3 1020.7 0.0
30/03:00pm 11.7 9.2 6.6 71 2.4 SW 9 17 5 9 1020.4 1020.8 0.0
30/02:30pm 11.2 9.1 6.7 74 2.2 SW 7 13 4 7 1020.6 1021.0 0.0
30/02:00pm 10.9 8.5 7.2 78 1.8 SW 9 15 5 8 1020.9 1021.3 0.0
30/01:30pm 9.7 6.7 6.1 78 1.7 SSW 11 15 6 8 1021.1 1021.5 0.0
30/01:00pm 9.3 6.7 6.0 80 1.5 S 9 15 5 8 1021.6 1022.1 0.0
30/12:30pm 8.9 6.7 6.3 84 1.2 S 7 13 4 7 1021.9 1022.4 0.0
30/12:00pm 7.9 5.7 6.0 88 0.9 WSW 7 11 4 6 1022.4 1022.8 0.0
30/11:30am 7.0 4.7 5.8 92 0.5 WSW 7 11 4 6 1022.9 1023.3 0.0
30/11:00am 6.1 4.4 5.7 97 0.2 WSW 4 11 2 6 1023.1 1023.5 0.0
30/10:30am 5.8 3.5 5.7 99 0.0 SSE 7 9 4 5 1023.1 1023.5 0.0
30/10:00am 5.4 3.6 5.3 99 0.0 NW 4 7 2 4 1023.0 1023.4 0.0
30/09:30am 4.5 2.1 4.4 99 0.0 SSW 6 9 3 5 1023.1 1023.5 0.0
30/09:00am 4.3 1.3 4.2 99 0.0 SSW 9 13 5 7 1023.1 1023.5 0.0
30/08:30am 4.3 1.7 4.2 99 0.0 SSE 7 11 4 6 1023.0 1023.4 0.0
30/08:00am 4.2 1.6 4.1 99 0.0 SSW 7 11 4 6 1022.9 1023.3 0.0
30/07:30am 4.2 1.2 4.1 99 0.0 S 9 13 5 7 1022.7 1023.1 0.0
30/07:00am 4.0 0.6 3.9 99 0.0 SSW 11 15 6 8 1022.3 1022.7 0.0
30/06:30am 4.1 0.7 4.0 99 0.0 S 11 17 6 9 1022.1 1022.6 0.0
30/06:00am 4.0 0.6 3.9 99 0.0 SW 11 15 6 8 1021.8 1022.3 0.0
30/05:30am 4.1 1.1 4.0 99 0.0 SSW 9 13 5 7 1021.7 1022.2 0.0
30/05:00am 3.6 1.4 3.5 99 0.0 SSW 4 7 2 4 1021.6 1022.1 0.0
30/04:30am 2.5 0.5 2.4 99 0.0 SW 2 7 1 4 1021.6 1022.1 0.0
30/04:00am 1.2 -0.6 0.9 98 0.1 CALM 0 0 0 0 1021.8 1022.3 0.0
30/03:30am 0.8 -1.5 0.4 97 0.1 ENE 2 6 1 3 1021.8 1022.3 0.0
30/03:00am 1.0 -1.3 0.6 97 0.1 NE 2 6 1 3 1022.0 1022.5 0.0
30/02:30am 1.5 -0.3 1.1 97 0.2 CALM 0 6 0 3 1022.3 1022.7 0.0
30/02:00am 1.4 -2.2 0.8 96 0.2 W 9 9 5 5 1022.5 1022.9 0.0
30/01:30am 2.3 0.6 1.7 96 0.2 CALM 0 0 0 0 1022.9 1023.3 0.0
30/01:00am 2.0 0.2 1.3 95 0.3 CALM 0 0 0 0 1023.3 1023.7 0.0
30/12:30am 2.1 -0.5 0.8 91 0.5 W 4 7 2 4 1023.5 1023.9 0.0
30/12:00am 3.7 0.8 2.7 93 0.4 WSW 7 9 4 5 1023.4 1023.8 0.0
 
Date/Time
EST
Temp
°C
App
Temp
°C
Dew
Point
Rel
Hum
%
Delta-T
°C
Wind Press
QNH
hPa
Press
MSL
hPa
Rain
since 9 am
mm
Dir
 
Spd
km/h
Gust
km/h
Spd
kts
Gust
kts
29/11:30pm 3.8 0.5 2.5 91 0.5 WSW 9 11 5 6 1023.4 1023.8 0.0
29/11:00pm 4.2 0.2 2.9 91 0.5 WSW 13 15 7 8 1023.5 1023.9 0.0
29/10:30pm 3.4 -0.4 1.9 90 0.6 WSW 11 15 6 8 1023.6 1024.0 0.0
29/10:00pm 4.7 1.9 3.2 90 0.6 SW 7 11 4 6 1023.8 1024.2 0.0
29/09:30pm 3.4 0.0 1.9 90 0.6 WSW 9 11 5 6 1023.6 1024.0 0.0
29/09:00pm 4.4 1.6 2.1 85 0.9 WSW 6 7 3 4 1023.7 1024.1 0.0
29/08:30pm 5.3 2.6 2.7 83 1.1 SW 6 7 3 4 1023.5 1023.9 0.0
29/08:00pm 5.5 2.5 2.3 80 1.3 WSW 7 9 4 5 1023.3 1023.7 0.0
29/07:30pm 6.2 3.2 2.3 76 1.6 SW 7 9 4 5 1023.2 1023.6 0.0
29/07:00pm 6.4 3.0 2.1 74 1.8 SW 9 11 5 6 1023.2 1023.6 0.0
29/06:30pm 7.1 3.8 2.6 73 1.9 SW 9 15 5 8 1023.0 1023.4 0.0
29/06:00pm 7.7 4.5 3.0 72 2.0 SW 9 15 5 8 1022.9 1023.3 0.0
29/05:30pm 9.2 4.9 3.2 66 2.6 WSW 15 24 8 13 1022.6 1023.0 0.0
29/05:00pm 10.0 4.9 3.1 62 3.0 SW 19 26 10 14 1022.5 1022.9 0.0
29/04:30pm 10.6 5.3 3.2 60 3.3 SW 20 30 11 16 1022.6 1023.0 0.0
29/04:00pm 11.0 5.9 2.8 57 3.6 SW 19 26 10 14 1022.7 1023.1 0.0
29/03:30pm 11.2 5.7 1.7 52 4.1 SW 20 30 11 16 1022.8 1023.2 0.0
29/03:00pm 11.4 5.8 1.1 49 4.4 WSW 20 32 11 17 1022.8 1023.2 0.0
29/02:30pm 11.4 5.8 3.2 57 3.7 WSW 22 30 12 16 1022.9 1023.3 0.0
29/02:00pm 12.1 6.7 2.3 51 4.3 WSW 20 30 11 16 1022.9 1023.3 0.0
29/01:30pm 12.2 6.6 3.2 54 4.0 WSW 22 32 12 17 1023.0 1023.4 0.0
29/01:00pm 11.7 6.4 3.2 56 3.8 WSW 20 30 11 16 1023.5 1023.9 0.0
29/12:30pm 11.6 6.3 3.1 56 3.8 WSW 20 26 11 14 1024.1 1024.5 0.0
29/12:00pm 11.7 6.3 4.7 62 3.2 WSW 22 32 12 17 1024.3 1024.7 0.0
29/11:30am 11.3 6.4 2.1 53 4.0 WSW 17 20 9 11 1024.6 1025.1 0.0
29/11:00am 10.7 6.2 4.0 63 3.0 SSW 17 22 9 12 1024.9 1025.4 0.0
29/10:30am 10.8 7.1 4.7 66 2.8 SSW 13 19 7 10 1024.9 1025.4 0.0
29/10:00am 9.2 5.9 4.8 74 2.0 WSW 11 17 6 9 1025.0 1025.5 0.0
29/09:30am 7.9 5.6 5.9 87 0.9 WSW 7 11 4 6 1025.1 1025.6 0.0
29/09:00am 6.3 3.2 5.4 94 0.4 W 11 15 6 8 1025.1 1025.6 0.0
29/08:30am 5.3 1.7 5.0 98 0.1 W 13 17 7 9 1025.0 1025.5 0.0
29/08:00am 5.2 2.0 5.1 99 0.0 WSW 11 15 6 8 1024.7 1025.2 0.0
29/07:30am 4.9 1.6 4.8 99 0.0 W 11 17 6 9 1024.4 1024.9 0.0
29/07:00am 3.7 1.2 3.6 99 0.0 SW 6 11 3 6 1024.0 1024.4 0.0
29/06:30am 3.6 0.5 3.5 99 0.0 SW 9 13 5 7 1023.8 1024.2 0.0
29/06:00am 3.0 -0.6 2.7 98 0.1 WSW 11 15 6 8 1023.6 1024.0 0.0
29/05:30am 3.0 0.3 2.6 97 0.2 WSW 6 9 3 5 1023.7 1024.1 0.0
29/05:00am 3.2 0.4 2.9 98 0.1 W 7 9 4 5 1023.6 1024.0 0.0
29/04:30am 3.3 0.5 3.0 98 0.1 W 7 9 4 5 1023.5 1023.9 0.0
29/04:00am 3.7 0.9 3.4 98 0.1 WSW 7 7 4 4 1023.3 1023.7 0.0
29/03:30am 4.1 2.7 3.8 98 0.1 CALM 0 0 0 0 1023.5 1023.9 0.0
29/03:00am 4.6 3.4 4.5 99 0.0 CALM 0 0 0 0 1023.7 1024.1 0.0
29/02:30am 3.8 2.4 3.5 98 0.1 CALM 0 0 0 0 1024.0 1024.4 0.0
29/02:00am 3.1 1.5 2.5 96 0.2 CALM 0 0 0 0 1024.1 1024.5 0.0
29/01:30am 4.1 2.7 3.5 96 0.3 CALM 0 0 0 0 1024.3 1024.7 0.0
29/01:00am 4.2 2.8 3.6 96 0.3 CALM 0 0 0 0 1024.4 1024.9 0.0
29/12:30am 4.4 2.7 4.0 97 0.2 N 2 6 1 3 1024.3 1024.7 0.0
29/12:00am 4.7 2.0 3.8 94 0.4 N 7 7 4 4 1024.4 1024.9 0.0
 
Date/Time
EST
Temp
°C
App
Temp
°C
Dew
Point
Rel
Hum
%
Delta-T
°C
Wind Press
QNH
hPa
Press
MSL
hPa
Rain
since 9 am
mm
Dir
 
Spd
km/h
Gust
km/h
Spd
kts
Gust
kts
28/11:30pm 5.3 2.8 4.0 91 0.6 NNE 6 7 3 4 1024.6 1025.1 0.0
28/11:00pm 6.1 5.0 4.9 92 0.5 CALM 0 0 0 0 1024.5 1025.0 0.0
28/10:30pm 6.5 4.6 4.8 89 0.8 WSW 4 6 2 3 1024.7 1025.2 0.0
28/10:00pm 7.6 4.9 5.6 87 0.9 WSW 9 11 5 6 1024.6 1025.1 0.0
28/09:30pm 7.9 5.9 7.0 94 0.4 WSW 7 11 4 6 1024.6 1025.1 0.0
28/09:00pm 7.3 5.3 6.9 97 0.2 WSW 7 7 4 4 1024.4 1024.9 0.0
28/08:30pm 6.8 4.8 6.1 95 0.3 WSW 6 7 3 4 1024.4 1024.9 0.0
28/08:00pm 7.2 6.3 6.0 92 0.5 CALM 0 0 0 0 1024.2 1024.6 0.0
28/07:30pm 8.6 8.0 7.4 92 0.6 CALM 0 0 0 0 1023.9 1024.3 0.0
28/07:00pm 8.6 7.6 7.2 91 0.7 NNE 2 6 1 3 1023.8 1024.2 0.0
28/06:30pm 9.1 7.7 7.4 89 0.8 NNW 4 6 2 3 1023.6 1024.0 0.0
28/06:00pm 9.5 8.4 6.8 83 1.3 WSW 2 6 1 3 1023.3 1023.7 0.0
28/05:30pm 11.0 9.1 7.7 80 1.6 W 7 7 4 4 1023.1 1023.5 0.0
28/05:00pm 11.9 9.6 7.4 74 2.2 W 9 13 5 7 1022.9 1023.3 0.0
28/04:30pm 12.0 9.3 7.5 74 2.2 WNW 11 15 6 8 1022.9 1023.3 0.0
28/04:00pm 12.2 8.9 8.1 76 2.0 W 15 20 8 11 1022.9 1023.3 0.0
28/03:30pm 12.1 8.7 7.6 74 2.2 W 15 17 8 9 1022.8 1023.2 0.0
28/03:00pm 12.5 8.7 7.4 71 2.5 WSW 17 20 9 11 1022.8 1023.2 0.0
28/02:30pm 12.4 9.1 7.9 74 2.2 WSW 15 20 8 11 1022.7 1023.1 0.0
28/02:00pm 12.0 8.7 8.1 77 1.9 WSW 15 20 8 11 1022.9 1023.3 0.0
28/01:30pm 11.6 8.9 7.5 76 2.0 W 11 17 6 9 1023.0 1023.4 0.0
28/01:00pm 11.8 8.1 8.1 78 1.8 W 17 24 9 13 1023.1 1023.5 0.0
28/12:30pm 12.0 8.3 7.9 76 2.0 W 17 24 9 13 1023.4 1023.8 0.0
28/12:00pm 11.8 8.4 7.5 75 2.1 W 15 19 8 10 1023.7 1024.1 0.0
28/11:30am 11.4 9.2 7.9 79 1.7 WSW 9 17 5 9 1024.1 1024.5 0.0
28/11:00am 10.8 7.7 7.1 78 1.8 WSW 13 20 7 11 1024.1 1024.5 0.0
28/10:30am 10.2 7.7 6.7 79 1.7 SW 9 13 5 7 1023.9 1024.3 0.0
28/10:00am 9.9 6.4 7.2 83 1.3 WSW 15 19 8 10 1023.7 1024.1 0.0
28/09:30am 9.8 7.1 7.4 85 1.2 SW 11 15 6 8 1023.6 1024.0 0.0
28/09:00am 9.5 6.4 7.4 87 1.0 SW 13 19 7 10 1023.6 1024.0 1.6
28/08:30am 9.2 6.2 7.6 90 0.8 SSW 13 19 7 10 1023.4 1023.8 1.6
28/08:00am 8.5 5.0 7.0 90 0.7 SW 15 19 8 10 1022.8 1023.2 1.6
28/07:30am 8.5 5.0 7.0 90 0.7 SW 15 22 8 12 1022.5 1022.9 1.6
28/07:00am 8.4 5.3 7.3 93 0.5 SW 13 17 7 9 1022.3 1022.7 1.6
28/06:30am 8.3 6.0 7.4 94 0.4 SW 9 13 5 7 1021.9 1022.4 1.6
28/06:00am 8.3 5.6 7.4 94 0.4 WSW 11 13 6 7 1021.6 1022.1 1.6
28/05:30am 8.3 5.2 7.4 94 0.4 WSW 13 17 7 9 1021.2 1021.6 1.6
28/05:00am 8.2 4.8 7.6 96 0.3 W 15 20 8 11 1020.8 1021.2 1.6
28/04:30am 7.9 5.3 7.6 98 0.1 WNW 11 15 6 8 1020.7 1021.1 1.4
28/04:00am 7.7 5.0 7.4 98 0.1 WNW 11 19 6 10 1020.5 1020.9 1.4
28/03:30am 7.0 5.1 6.9 99 0.0 NNW 6 7 3 4 1020.6 1021.0 1.4
28/03:00am 6.8 4.7 6.7 99 0.0 NNW 7 9 4 5 1020.6 1021.0 1.4
28/02:30am 6.0 3.4 5.9 99 0.0 N 9 9 5 5 1020.8 1021.2 1.4
28/02:00am 5.8 3.1 5.5 98 0.1 N 9 11 5 6 1021.0 1021.4 1.4
28/01:30am 5.2 2.7 4.6 96 0.3 WNW 7 7 4 4 1021.2 1021.6 1.4
28/01:00am 6.0 3.6 5.3 95 0.3 W 7 11 4 6 1021.2 1021.6 1.4
28/12:30am 6.5 3.8 5.8 95 0.3 WSW 9 13 5 7 1021.3 1021.7 1.4
28/12:00am 6.9 3.9 5.8 93 0.5 WSW 11 13 6 7 1021.3 1021.7 1.4
 
Date/Time
EST
Temp
°C
App
Temp
°C
Dew
Point
Rel
Hum
%
Delta-T
°C
Wind Press
QNH
hPa
Press
MSL
hPa
Rain
since 9 am
mm
Dir
 
Spd
km/h
Gust
km/h
Spd
kts
Gust
kts
27/11:30pm 7.3 4.3 5.9 91 0.6 WSW 11 15 6 8 1021.3 1021.7 1.4
27/11:00pm 7.2 3.8 6.0 92 0.5 W 13 17 7 9 1021.4 1021.9 1.4
27/10:30pm 7.4 4.4 6.0 91 0.6 W 11 15 6 8 1021.5 1022.0 1.4
27/10:00pm 8.1 4.5 6.6 90 0.7 WNW 15 17 8 9 1021.5 1022.0 1.4
27/09:30pm 8.6 5.4 6.9 89 0.8 W 13 17 7 9 1021.2 1021.6 1.4
27/09:00pm 8.2 6.2 7.0 92 0.6 W 7 11 4 6 1021.3 1021.7 1.4
27/08:30pm 8.4 5.3 7.2 92 0.6 W 13 19 7 10 1021.2 1021.6 1.4
27/08:00pm 8.3 4.0 7.1 92 0.6 W 19 28 10 15 1021.3 1021.7 1.4

Other Formats:

Comma delimited format used in spreadsheet applications
http://www.bom.gov.au/fwo/IDN60801/IDN60801.95722.axf

JavaScript Object Notation format (JSON) in row-major order
http://www.bom.gov.au/fwo/IDN60801/IDN60801.95722.json